createdAt,value
2019-02-04T00:01:59.687Z,41.02
2019-02-04T00:04:30.640Z,41.08
2019-02-04T00:07:00.566Z,41.11
2019-02-04T00:09:30.146Z,41.11
2019-02-04T00:11:59.824Z,41.29
2019-02-04T00:14:29.465Z,41.34
2019-02-04T00:16:59.134Z,41.40
2019-02-04T00:19:28.862Z,41.25
2019-02-04T00:21:58.496Z,41.22
2019-02-04T00:24:28.487Z,41.18
2019-02-04T00:26:58.124Z,41.33
2019-02-04T00:29:27.806Z,41.31
2019-02-04T00:31:57.514Z,41.36
2019-02-04T00:34:27.136Z,41.33
2019-02-04T00:36:56.771Z,41.34
2019-02-04T00:39:26.411Z,41.39
2019-02-04T00:41:56.147Z,41.67
2019-02-04T00:44:25.848Z,41.63
2019-02-04T00:46:55.493Z,41.73
2019-02-04T00:49:25.065Z,41.61
2019-02-04T00:51:54.736Z,41.55
2019-02-04T00:54:24.600Z,41.47
2019-02-04T00:56:54.262Z,41.48
2019-02-04T00:59:23.921Z,41.47
2019-02-04T01:01:53.661Z,41.51
2019-02-04T01:04:23.555Z,41.44
2019-02-04T01:06:53.492Z,41.41
2019-02-04T01:09:23.256Z,41.45
2019-02-04T01:11:53.101Z,41.57
2019-02-04T01:14:22.871Z,41.37
2019-02-04T01:17:03.238Z,41.41
2019-02-04T01:19:25.102Z,41.39
2019-02-04T01:21:54.797Z,41.21
2019-02-04T01:24:24.521Z,41.35
2019-02-04T01:26:54.216Z,41.38
2019-02-04T01:29:23.851Z,41.33
2019-02-04T01:31:53.538Z,41.42
2019-02-04T01:34:23.493Z,41.40
2019-02-04T01:36:53.175Z,41.37
2019-02-04T01:39:23.010Z,41.35
2019-02-04T01:41:52.686Z,41.35
2019-02-04T01:44:22.433Z,41.38
2019-02-04T01:46:52.116Z,41.40
2019-02-04T01:49:21.840Z,41.29
2019-02-04T01:51:51.535Z,41.27
2019-02-04T01:54:21.193Z,41.42
2019-02-04T01:56:50.856Z,41.49
2019-02-04T01:59:20.561Z,41.41
2019-02-04T02:01:50.622Z,41.38
2019-02-04T02:04:20.321Z,41.36
2019-02-04T02:06:50.104Z,41.24
2019-02-04T02:09:24.755Z,41.27
2019-02-04T02:11:54.466Z,41.38
2019-02-04T02:14:24.393Z,41.36
2019-02-04T02:16:54.080Z,41.47
2019-02-04T02:19:23.706Z,41.41
2019-02-04T02:21:53.398Z,41.51
2019-02-04T02:24:23.058Z,41.39
2019-02-04T02:26:52.811Z,41.42
2019-02-04T02:29:22.439Z,41.43
2019-02-04T02:31:52.133Z,41.41
2019-02-04T02:34:21.846Z,41.38
2019-02-04T02:36:51.499Z,41.36
2019-02-04T02:39:21.275Z,41.40
2019-02-04T02:41:51.309Z,41.30
2019-02-04T02:44:21.113Z,41.38
2019-02-04T02:46:50.725Z,41.36
2019-02-04T02:49:20.424Z,41.43
2019-02-04T02:51:50.104Z,41.50
2019-02-04T02:54:19.838Z,41.80
2019-02-04T02:56:49.877Z,41.84
2019-02-04T02:59:19.579Z,41.95
2019-02-04T03:01:49.207Z,41.80
2019-02-04T03:04:19.033Z,41.66
2019-02-04T03:06:48.634Z,41.57
2019-02-04T03:09:18.307Z,41.52
2019-02-04T03:11:47.952Z,41.41
2019-02-04T03:14:17.645Z,41.46
2019-02-04T03:16:47.351Z,41.43
2019-02-04T03:19:16.983Z,41.34
2019-02-04T03:21:46.754Z,41.33
2019-02-04T03:24:16.703Z,41.34
2019-02-04T03:26:46.386Z,41.26
2019-02-04T03:29:15.971Z,41.33
2019-02-04T03:31:46.619Z,41.51
2019-02-04T03:34:16.343Z,41.54
2019-02-04T03:36:45.989Z,41.55
2019-02-04T03:39:15.664Z,41.55
2019-02-04T03:41:45.434Z,41.57
2019-02-04T03:44:15.201Z,41.56
2019-02-04T03:46:44.820Z,41.66
2019-02-04T03:49:14.582Z,41.53
2019-02-04T03:51:44.543Z,41.51
2019-02-04T03:54:14.331Z,41.55
2019-02-04T03:56:44.065Z,41.51
2019-02-04T03:59:13.859Z,41.49
2019-02-04T04:01:43.579Z,41.59
2019-02-04T04:04:13.090Z,41.76
2019-02-04T04:06:42.829Z,41.69
2019-02-04T04:09:12.513Z,41.74
2019-02-04T04:11:42.202Z,41.72
2019-02-04T04:14:11.883Z,41.80
2019-02-04T04:16:41.626Z,41.81
2019-02-04T04:19:11.512Z,41.75
2019-02-04T04:21:41.262Z,41.66
2019-02-04T04:24:10.943Z,41.72
2019-02-04T04:26:40.787Z,41.69
2019-02-04T04:29:10.425Z,41.82
2019-02-04T04:31:40.212Z,41.75
2019-02-04T04:34:10.049Z,41.79
2019-02-04T04:36:39.728Z,41.82
2019-02-04T04:39:09.539Z,41.85
2019-02-04T04:41:39.351Z,41.75
2019-02-04T04:44:09.063Z,41.81
2019-02-04T04:46:39.189Z,42.05
2019-02-04T04:49:08.814Z,42.01
2019-02-04T04:51:38.508Z,42.01
2019-02-04T04:54:08.220Z,42.05
2019-02-04T04:56:37.950Z,41.94
2019-02-04T04:59:07.636Z,42.14
2019-02-04T05:01:37.593Z,42.06
2019-02-04T05:04:07.283Z,42.18
2019-02-04T05:06:36.895Z,42.05
2019-02-04T05:09:07.837Z,42.45
2019-02-04T05:11:37.524Z,42.42
2019-02-04T05:14:07.338Z,42.04
2019-02-04T05:16:37.266Z,42.00
2019-02-04T05:19:07.062Z,42.19
2019-02-04T05:21:36.668Z,42.11
2019-02-04T05:24:07.617Z,42.16
2019-02-04T05:26:37.530Z,42.26
2019-02-04T05:29:07.172Z,42.14
2019-02-04T05:31:37.147Z,42.28
2019-02-04T05:34:06.775Z,42.22
2019-02-04T05:36:36.843Z,42.09
2019-02-04T05:39:08.311Z,42.08
2019-02-04T05:41:38.679Z,42.05
2019-02-04T05:44:08.373Z,41.97
2019-02-04T05:46:38.086Z,41.79
2019-02-04T05:49:07.946Z,41.68
2019-02-04T05:51:37.693Z,41.71
2019-02-04T05:54:08.699Z,41.81
2019-02-04T05:56:38.560Z,41.54
2019-02-04T05:59:09.550Z,41.41
2019-02-04T06:01:39.422Z,41.11
2019-02-04T06:04:10.002Z,40.80
2019-02-04T06:06:40.980Z,41.05
2019-02-04T06:09:11.434Z,41.19
2019-02-04T06:11:41.265Z,40.99
2019-02-04T06:14:11.664Z,40.97
2019-02-04T06:16:41.603Z,40.86
2019-02-04T06:19:11.249Z,37.98
2019-02-04T06:21:40.967Z,37.67
2019-02-04T06:24:10.697Z,38.98
2019-02-04T06:26:40.681Z,40.12
2019-02-04T06:29:10.403Z,40.40
2019-02-04T06:31:40.267Z,40.38
2019-02-04T06:34:10.094Z,40.41
2019-02-04T06:36:40.623Z,40.38
2019-02-04T06:39:11.879Z,40.58
2019-02-04T06:41:41.665Z,40.76
2019-02-04T06:44:11.125Z,40.75
2019-02-04T06:46:40.889Z,40.95
2019-02-04T06:49:12.536Z,41.10
2019-02-04T06:51:42.241Z,41.03
2019-02-04T06:54:12.007Z,41.08
2019-02-04T06:56:41.806Z,41.50
2019-02-04T06:59:11.575Z,41.54
2019-02-04T07:01:41.600Z,41.47
2019-02-04T07:04:11.482Z,41.58
2019-02-04T07:06:41.249Z,41.49
2019-02-04T07:09:12.256Z,41.40
2019-02-04T07:11:41.788Z,41.42
2019-02-04T07:14:11.490Z,41.37
2019-02-04T07:16:41.388Z,41.41
2019-02-04T07:19:11.274Z,41.41
2019-02-04T07:21:41.064Z,41.47
2019-02-04T07:24:10.839Z,41.52
2019-02-04T07:26:40.465Z,41.46
2019-02-04T07:29:10.280Z,41.54
2019-02-04T07:31:40.223Z,41.46
2019-02-04T07:34:09.884Z,41.48
2019-02-04T07:36:39.898Z,41.53
2019-02-04T07:39:09.916Z,41.56
2019-02-04T07:41:39.687Z,41.69
2019-02-04T07:44:09.352Z,41.57
2019-02-04T07:46:39.514Z,41.60
2019-02-04T07:49:09.279Z,41.56
2019-02-04T07:51:39.081Z,41.54
2019-02-04T07:54:08.981Z,41.58
2019-02-04T07:56:38.690Z,41.56
2019-02-04T07:59:08.534Z,41.60
2019-02-04T08:01:38.523Z,41.61
2019-02-04T08:04:08.369Z,41.53
2019-02-04T08:06:37.986Z,41.51
2019-02-04T08:09:09.569Z,41.49
2019-02-04T08:11:39.269Z,41.54
2019-02-04T08:14:09.254Z,41.54
2019-02-04T08:16:38.978Z,41.52
2019-02-04T08:19:08.799Z,41.52
2019-02-04T08:21:38.506Z,41.54
2019-02-04T08:24:08.304Z,41.52
2019-02-04T08:26:38.054Z,41.54
2019-02-04T08:29:08.136Z,41.52
2019-02-04T08:31:37.931Z,41.59
2019-02-04T08:34:07.672Z,41.60
2019-02-04T08:36:45.978Z,41.54
2019-02-04T08:39:09.923Z,41.54
2019-02-04T08:41:39.648Z,41.58
2019-02-04T08:44:09.330Z,41.58
2019-02-04T08:46:39.076Z,41.58
2019-02-04T08:49:08.735Z,41.62
2019-02-04T08:51:38.392Z,41.57
2019-02-04T08:54:08.105Z,41.60
2019-02-04T08:56:37.730Z,41.50
2019-02-04T08:59:07.444Z,41.76
2019-02-04T09:01:37.376Z,41.51
2019-02-04T09:04:07.387Z,41.53
2019-02-04T09:06:37.170Z,41.56
2019-02-04T09:09:09.631Z,41.42
2019-02-04T09:11:39.267Z,41.35
2019-02-04T09:14:09.199Z,41.35
2019-02-04T09:16:38.797Z,41.30
2019-02-04T09:19:08.498Z,41.35
2019-02-04T09:21:38.132Z,41.25
2019-02-04T09:24:07.921Z,41.11
2019-02-04T09:26:37.759Z,41.05
2019-02-04T09:29:07.650Z,40.90
2019-02-04T09:31:37.291Z,40.75
2019-02-04T09:34:06.932Z,40.56
2019-02-04T09:36:36.671Z,40.43
2019-02-04T09:39:09.411Z,40.34
2019-02-04T09:41:39.416Z,40.19
2019-02-04T09:44:09.458Z,40.04
2019-02-04T09:46:39.314Z,39.79
2019-02-04T09:49:09.133Z,39.77
2019-02-04T09:51:39.036Z,39.63
2019-02-04T09:54:08.865Z,39.57
2019-02-04T09:56:38.626Z,39.57
2019-02-04T09:59:08.466Z,39.61
2019-02-04T10:01:38.316Z,39.65
2019-02-04T10:04:08.007Z,39.83
2019-02-04T10:06:37.801Z,40.20
2019-02-04T10:09:09.528Z,39.92
2019-02-04T10:11:39.315Z,40.05
2019-02-04T10:14:09.100Z,40.72
2019-02-04T10:16:38.733Z,40.77
2019-02-04T10:19:08.451Z,40.74
2019-02-04T10:21:38.143Z,40.94
2019-02-04T10:24:08.150Z,41.35
2019-02-04T10:26:38.854Z,42.06
2019-02-04T10:29:08.516Z,42.24
2019-02-04T10:31:38.230Z,42.96
2019-02-04T10:34:07.877Z,42.82
2019-02-04T10:36:37.539Z,42.56
2019-02-04T10:39:09.619Z,42.40
2019-02-04T10:41:39.320Z,42.26
2019-02-04T10:44:08.954Z,42.13
2019-02-04T10:46:38.787Z,41.92
2019-02-04T10:49:08.509Z,41.75
2019-02-04T10:51:38.553Z,41.64
2019-02-04T10:54:08.348Z,41.43
2019-02-04T10:56:38.199Z,41.37
2019-02-04T10:59:07.965Z,41.23
2019-02-04T11:01:37.814Z,41.06
2019-02-04T11:04:07.595Z,41.35
2019-02-04T11:06:37.378Z,41.16
2019-02-04T11:09:09.195Z,41.01
2019-02-04T11:11:39.082Z,40.87
2019-02-04T11:14:08.829Z,40.70
2019-02-04T11:16:38.567Z,40.63
2019-02-04T11:19:08.684Z,40.50
2019-02-04T11:21:38.464Z,40.25
2019-02-04T11:24:08.382Z,40.23
2019-02-04T11:26:38.166Z,40.18
2019-02-04T11:29:07.847Z,40.10
2019-02-04T11:31:37.597Z,40.11
2019-02-04T11:34:07.453Z,39.98
2019-02-04T11:36:37.405Z,39.89
2019-02-04T11:39:09.299Z,40.01
2019-02-04T11:41:39.067Z,39.98
2019-02-04T11:44:08.756Z,39.87
2019-02-04T11:46:38.890Z,39.74
2019-02-04T11:49:08.587Z,39.73
2019-02-04T11:51:38.210Z,39.76
2019-02-04T11:54:07.712Z,39.74
2019-02-04T11:56:37.408Z,39.70
2019-02-04T11:59:07.196Z,39.65
2019-02-04T12:01:36.835Z,39.60
2019-02-04T12:04:06.815Z,39.48
2019-02-04T12:06:36.605Z,39.17
2019-02-04T12:09:08.963Z,39.50
2019-02-04T12:11:38.792Z,39.91
2019-02-04T12:14:08.831Z,39.71
2019-02-04T12:16:38.474Z,39.72
2019-02-04T12:19:08.081Z,39.68
2019-02-04T12:21:37.800Z,39.76
2019-02-04T12:24:07.404Z,39.53
2019-02-04T12:26:37.094Z,39.72
2019-02-04T12:29:07.080Z,39.81
2019-02-04T12:31:36.807Z,40.02
2019-02-04T12:34:06.464Z,40.11
2019-02-04T12:36:36.309Z,40.12
2019-02-04T12:39:14.896Z,40.19
2019-02-04T12:41:44.714Z,40.04
2019-02-04T12:44:14.377Z,39.99
2019-02-04T12:46:44.126Z,40.04
2019-02-04T12:49:13.809Z,40.03
2019-02-04T12:51:43.441Z,39.73
2019-02-04T12:54:13.037Z,39.80
2019-02-04T12:56:42.788Z,40.05
2019-02-04T12:59:12.347Z,40.01
2019-02-04T13:01:41.983Z,39.96
2019-02-04T13:04:11.671Z,39.95
2019-02-04T13:06:41.529Z,39.83
2019-02-04T13:09:11.456Z,39.78
2019-02-04T13:11:41.206Z,39.74
2019-02-04T13:14:10.910Z,39.74
2019-02-04T13:16:40.563Z,39.75
2019-02-04T13:19:10.246Z,39.78
2019-02-04T13:21:45.478Z,39.86
2019-02-04T13:24:11.311Z,39.84
2019-02-04T13:26:41.031Z,39.87
2019-02-04T13:29:10.736Z,39.87
2019-02-04T13:31:40.446Z,39.95
2019-02-04T13:34:10.259Z,39.88
2019-02-04T13:36:40.084Z,39.72
2019-02-04T13:39:10.511Z,39.77
2019-02-04T13:41:40.187Z,39.89
2019-02-04T13:44:10.006Z,39.92
2019-02-04T13:46:39.715Z,39.92
2019-02-04T13:49:09.478Z,39.90
2019-02-04T13:51:39.588Z,39.93
2019-02-04T13:54:09.385Z,39.95
2019-02-04T13:56:39.094Z,40.00
2019-02-04T13:59:08.846Z,40.08
2019-02-04T14:01:38.614Z,40.12
2019-02-04T14:04:08.402Z,40.08
2019-02-04T14:06:38.153Z,40.09
2019-02-04T14:09:15.980Z,39.96
2019-02-04T14:11:45.748Z,39.90
2019-02-04T14:14:15.679Z,39.88
2019-02-04T14:16:45.592Z,39.87
2019-02-04T14:19:15.509Z,39.84
2019-02-04T14:21:45.339Z,39.84
2019-02-04T14:24:14.933Z,39.82
2019-02-04T14:26:44.641Z,39.88
2019-02-04T14:29:14.351Z,39.98
2019-02-04T14:31:44.363Z,40.10
2019-02-04T14:34:13.993Z,40.16
2019-02-04T14:36:43.862Z,40.21
2019-02-04T14:39:15.689Z,40.27
2019-02-04T14:41:45.431Z,40.28
2019-02-04T14:45:05.301Z,40.29
2019-02-04T14:47:46.615Z,40.38
2019-02-04T14:50:56.206Z,40.45
2019-02-04T14:54:00.340Z,40.48
2019-02-04T14:56:59.475Z,40.56
2019-02-04T14:59:36.677Z,40.35
2019-02-04T15:02:37.904Z,40.39
2019-02-04T15:05:33.440Z,40.17
2019-02-04T15:08:39.386Z,40.19
2019-02-04T15:11:52.133Z,40.52
2019-02-04T15:14:55.302Z,40.06
2019-02-04T15:18:16.037Z,40.20
2019-02-04T15:21:09.378Z,40.29
2019-02-04T15:24:25.956Z,40.10
2019-02-04T15:28:01.029Z,40.13
2019-02-04T15:31:12.354Z,40.12
2019-02-04T15:33:53.721Z,40.08
2019-02-04T15:36:42.449Z,40.34
2019-02-04T15:39:51.295Z,40.21
2019-02-04T15:43:19.985Z,40.29
2019-02-04T15:46:10.681Z,40.26
2019-02-04T15:49:05.893Z,40.23
2019-02-04T15:51:40.410Z,40.43
2019-02-04T15:54:10.637Z,40.33
2019-02-04T15:56:40.272Z,40.38
2019-02-04T15:59:09.963Z,40.44
2019-02-04T16:01:39.694Z,40.58
2019-02-04T16:04:29.201Z,40.34
2019-02-04T16:06:58.883Z,40.38
2019-02-04T16:09:28.871Z,40.34
2019-02-04T16:11:58.595Z,40.29
2019-02-04T16:14:28.289Z,40.28
2019-02-04T16:16:58.024Z,40.26
2019-02-04T16:19:27.708Z,40.21
2019-02-04T16:21:57.434Z,40.20
2019-02-04T16:24:27.125Z,40.16
2019-02-04T16:26:56.855Z,40.19
2019-02-04T16:29:26.969Z,40.13
2019-02-04T16:31:56.681Z,39.20
2019-02-04T16:34:26.621Z,39.82
2019-02-04T16:36:56.367Z,39.96
2019-02-04T16:39:26.112Z,39.90
2019-02-04T16:41:55.903Z,39.88
2019-02-04T16:44:25.774Z,39.92
2019-02-04T16:46:55.457Z,39.99
2019-02-04T16:49:25.173Z,40.05
2019-02-04T16:51:54.812Z,40.15
2019-02-04T16:54:24.502Z,40.31
2019-02-04T16:56:54.322Z,40.43
2019-02-04T16:59:24.217Z,40.45
2019-02-04T17:01:53.746Z,40.53
2019-02-04T17:04:23.460Z,40.62
2019-02-04T17:06:53.186Z,41.01
2019-02-04T17:09:22.960Z,41.34
2019-02-04T17:11:52.692Z,41.71
2019-02-04T17:14:22.193Z,41.55
2019-02-04T17:16:51.808Z,41.57
2019-02-04T17:19:21.793Z,41.61
2019-02-04T17:21:51.487Z,41.78
2019-02-04T17:24:21.219Z,41.93
2019-02-04T17:26:50.841Z,41.86
2019-02-04T17:29:20.491Z,41.66
2019-02-04T17:31:50.180Z,41.52
2019-02-04T17:34:19.963Z,41.58
2019-02-04T17:36:49.585Z,41.46
2019-02-04T17:39:19.209Z,41.72
2019-02-04T17:41:49.207Z,41.84
2019-02-04T17:44:18.822Z,41.70
2019-02-04T17:46:48.618Z,41.86
2019-02-04T17:49:18.279Z,42.01
2019-02-04T17:51:48.070Z,41.83
2019-02-04T17:54:17.860Z,41.77
2019-02-04T17:56:47.772Z,41.84
2019-02-04T17:59:17.534Z,41.94
2019-02-04T18:01:47.140Z,41.86
2019-02-04T18:04:16.720Z,42.16
2019-02-04T18:06:46.520Z,41.76
2019-02-04T18:09:16.023Z,42.08
2019-02-04T18:11:45.732Z,41.91
2019-02-04T18:14:15.351Z,42.13
2019-02-04T18:16:45.049Z,42.24
2019-02-04T18:19:14.833Z,42.13
2019-02-04T18:21:44.487Z,42.11
2019-02-04T18:24:14.685Z,42.19
2019-02-04T18:26:44.396Z,42.25
2019-02-04T18:29:14.104Z,42.33
2019-02-04T18:31:43.765Z,42.31
2019-02-04T18:34:13.526Z,42.46
2019-02-04T18:36:43.219Z,42.32
2019-02-04T18:39:13.165Z,42.49
2019-02-04T18:41:44.227Z,42.47
2019-02-04T18:44:13.852Z,42.46
2019-02-04T18:46:43.879Z,42.50
2019-02-04T18:49:13.668Z,42.43
2019-02-04T18:51:43.375Z,42.47
2019-02-04T18:54:13.155Z,42.67
2019-02-04T18:56:42.886Z,42.74
2019-02-04T18:59:12.592Z,42.52
2019-02-04T19:01:42.311Z,42.47
2019-02-04T19:04:15.545Z,42.59
2019-02-04T19:06:47.735Z,42.44
2019-02-04T19:09:15.868Z,42.44
2019-02-04T19:11:45.772Z,42.52
2019-02-04T19:14:15.539Z,42.60
2019-02-04T19:16:45.522Z,42.53
2019-02-04T19:19:15.461Z,42.51
2019-02-04T19:21:45.313Z,42.47
2019-02-04T19:24:15.180Z,42.49
2019-02-04T19:26:44.946Z,42.56
2019-02-04T19:29:14.644Z,42.62
2019-02-04T19:31:44.496Z,42.62
2019-02-04T19:34:14.183Z,42.60
2019-02-04T19:36:44.021Z,42.61
2019-02-04T19:39:13.705Z,42.63
2019-02-04T19:41:43.987Z,42.59
2019-02-04T19:44:14.113Z,42.56
2019-02-04T19:46:44.089Z,42.58
2019-02-04T19:49:13.697Z,42.47
2019-02-04T19:51:43.382Z,42.81
2019-02-04T19:54:21.297Z,42.63
2019-02-04T19:56:44.581Z,42.75
2019-02-04T19:59:14.184Z,42.73
2019-02-04T20:01:43.886Z,42.61
2019-02-04T20:04:13.826Z,42.56
2019-02-04T20:06:43.481Z,42.54
2019-02-04T20:09:13.226Z,42.53
2019-02-04T20:11:42.932Z,42.60
2019-02-04T20:14:12.621Z,42.58
2019-02-04T20:16:42.257Z,42.73
2019-02-04T20:19:12.080Z,43.25
2019-02-04T20:21:41.743Z,43.58
2019-02-04T20:24:11.466Z,43.89
2019-02-04T20:26:41.174Z,43.82
2019-02-04T20:29:10.703Z,43.96
2019-02-04T20:31:40.512Z,43.69
2019-02-04T20:34:10.196Z,44.04
2019-02-04T20:36:39.907Z,43.95
2019-02-04T20:39:10.614Z,43.95
2019-02-04T20:41:40.502Z,44.36
2019-02-04T20:44:10.164Z,44.39
2019-02-04T20:46:39.963Z,44.43
2019-02-04T20:49:09.607Z,44.42
2019-02-04T20:51:39.245Z,44.30
2019-02-04T20:54:19.240Z,44.35
2019-02-04T20:56:40.298Z,44.32
2019-02-04T20:59:10.287Z,44.40
2019-02-04T21:01:40.048Z,44.46
2019-02-04T21:04:09.700Z,44.40
2019-02-04T21:06:39.347Z,44.37
2019-02-04T21:09:10.190Z,44.38
2019-02-04T21:11:39.975Z,44.42
2019-02-04T21:14:09.600Z,44.44
2019-02-04T21:16:39.226Z,44.37
2019-02-04T21:19:08.916Z,44.38
2019-02-04T21:21:38.666Z,44.23
2019-02-04T21:24:08.336Z,44.37
2019-02-04T21:26:38.027Z,44.53
2019-02-04T21:29:07.777Z,44.48
2019-02-04T21:31:37.446Z,44.27
2019-02-04T21:34:07.174Z,44.20
2019-02-04T21:36:36.786Z,44.17
2019-02-04T21:39:07.887Z,44.14
2019-02-04T21:41:37.861Z,44.26
2019-02-04T21:44:07.773Z,44.20
2019-02-04T21:46:37.386Z,44.11
2019-02-04T21:49:09.732Z,44.15
2019-02-04T21:51:39.445Z,44.23
2019-02-04T21:54:09.085Z,44.25
2019-02-04T21:56:38.767Z,44.19
2019-02-04T21:59:08.382Z,44.32
2019-02-04T22:01:38.078Z,44.27
2019-02-04T22:04:07.704Z,44.30
2019-02-04T22:06:37.401Z,44.22
2019-02-04T22:09:09.432Z,44.33
2019-02-04T22:11:39.178Z,44.31
2019-02-04T22:14:09.307Z,44.23
2019-02-04T22:16:38.935Z,44.19
2019-02-04T22:19:08.722Z,44.12
2019-02-04T22:21:38.427Z,43.99
2019-02-04T22:24:08.340Z,43.96
2019-02-04T22:26:38.006Z,44.00
2019-02-04T22:29:08.095Z,43.91
2019-02-04T22:31:37.708Z,43.95
2019-02-04T22:34:07.509Z,43.90
2019-02-04T22:36:37.125Z,43.85
2019-02-04T22:39:09.013Z,43.87
2019-02-04T22:41:38.928Z,43.87
2019-02-04T22:44:08.660Z,43.85
2019-02-04T22:46:38.268Z,43.77
2019-02-04T22:49:08.071Z,43.76
2019-02-04T22:51:37.698Z,43.78
2019-02-04T22:54:08.867Z,43.73
2019-02-04T22:56:38.610Z,43.75
2019-02-04T22:59:08.349Z,43.73
2019-02-04T23:01:45.020Z,43.70
2019-02-04T23:04:14.948Z,43.71
2019-02-04T23:06:44.950Z,43.69
2019-02-04T23:09:14.667Z,43.70
2019-02-04T23:11:44.471Z,43.70
2019-02-04T23:14:14.255Z,43.64
2019-02-04T23:16:43.992Z,43.69
2019-02-04T23:19:13.578Z,43.67
2019-02-04T23:21:43.251Z,43.71
2019-02-04T23:24:12.909Z,43.73
2019-02-04T23:26:42.576Z,43.69
2019-02-04T23:29:12.298Z,43.74
2019-02-04T23:31:42.004Z,43.74
2019-02-04T23:34:11.955Z,43.74
2019-02-04T23:36:41.732Z,43.70
2019-02-04T23:39:11.499Z,43.66
2019-02-04T23:41:41.144Z,43.73
2019-02-04T23:44:10.868Z,43.64
2019-02-04T23:46:40.496Z,43.58
2019-02-04T23:49:10.493Z,43.59
2019-02-04T23:51:40.139Z,43.60
2019-02-04T23:54:09.806Z,43.62
2019-02-04T23:56:39.523Z,43.63
2019-02-04T23:59:09.230Z,43.52
